Time;durP1;ratioP1;P1;durP2;ratioP2;P2;SDS_P1;SDS_P2;PMS_P1;PMS_P2;Temp;Humidity;BMP_temperature;BMP_pressure;BME280_temperature;BME280_humidity;BME280_pressure;Samples;Min_cycle;Max_cycle;Signal;HPM_P1;HPM_P2
2022/08/10 00:00:19;;;;;;;3.45;2.88;;;23.00;1.00;;;;;;5032674;28;20071;-81
2022/08/10 00:02:49;;;;;;;4.00;2.60;;;22.90;1.00;;;;;;5032645;28;20452;-81
2022/08/10 00:05:16;;;;;;;9.07;3.08;;;22.90;1.00;;;;;;5032983;28;20044;-80
2022/08/10 00:07:42;;;;;;;4.03;2.50;;;23.00;1.00;;;;;;5032269;28;20025;-81
2022/08/10 00:10:09;;;;;;;4.18;2.92;;;22.80;1.00;;;;;;5032633;28;20036;-81
2022/08/10 00:12:35;;;;;;;6.20;2.63;;;22.50;1.00;;;;;;5032706;28;20082;-80
2022/08/10 00:15:01;;;;;;;3.45;2.30;;;22.40;1.00;;;;;;5032703;28;20421;-81
2022/08/10 00:17:26;;;;;;;5.00;2.75;;;22.60;1.00;;;;;;5032487;28;20108;-80
2022/08/10 00:19:52;;;;;;;2.90;2.70;;;22.60;1.00;;;;;;5032422;28;20038;-81
2022/08/10 00:22:18;;;;;;;3.78;2.88;;;22.70;1.00;;;;;;5032144;28;20052;-80
2022/08/10 00:24:43;;;;;;;3.65;2.75;;;22.80;1.00;;;;;;5032419;28;20394;-81
2022/08/10 00:27:09;;;;;;;3.25;2.85;;;22.80;1.00;;;;;;5032274;28;20115;-81
2022/08/10 00:29:35;;;;;;;6.30;3.00;;;22.80;1.00;;;;;;5032597;28;20113;-81
2022/08/10 00:32:01;;;;;;;4.50;2.55;;;22.70;1.00;;;;;;5032530;28;20053;-81
2022/08/10 00:34:28;;;;;;;3.17;2.67;;;22.60;1.00;;;;;;5032619;28;20038;-81
2022/08/10 00:36:54;;;;;;;3.00;2.60;;;22.80;1.00;;;;;;5032336;28;20390;-81
2022/08/10 00:39:20;;;;;;;3.53;2.80;;;22.70;1.00;;;;;;5032709;28;20401;-81
2022/08/10 00:41:46;;;;;;;3.08;2.78;;;22.30;1.00;;;;;;5033008;28;20030;-81
2022/08/10 00:44:11;;;;;;;4.53;2.85;;;22.40;1.00;;;;;;5032382;28;20036;-81
2022/08/10 00:46:37;;;;;;;4.05;2.85;;;22.30;1.00;;;;;;5035865;28;20022;-80
2022/08/10 00:49:03;;;;;;;3.55;2.67;;;22.30;1.00;;;;;;5036003;28;20025;-80
2022/08/10 00:51:28;;;;;;;3.05;2.38;;;22.20;1.00;;;;;;5035805;28;20033;-81
2022/08/10 00:53:54;;;;;;;4.47;2.75;;;22.30;1.00;;;;;;5036098;28;20029;-80
2022/08/10 00:56:20;;;;;;;3.38;2.47;;;22.20;1.00;;;;;;5036415;28;20026;-81
2022/08/10 00:58:46;;;;;;;3.58;2.75;;;22.20;1.00;;;;;;5036001;28;20482;-81
2022/08/10 01:01:12;;;;;;;2.58;2.38;;;22.10;1.00;;;;;;5036245;28;20025;-81
2022/08/10 01:03:37;;;;;;;3.22;2.67;;;21.90;1.00;;;;;;5035813;28;20033;-81
2022/08/10 01:06:15;;;;;;;3.45;2.70;;;21.90;1.00;;;;;;5036054;28;20025;-81
2022/08/10 01:09:16;;;;;;;5.75;2.83;;;21.90;1.00;;;;;;5035788;28;20029;-81
2022/08/10 01:11:47;;;;;;;3.45;2.58;;;21.70;1.00;;;;;;5031699;28;20489;-80
2022/08/10 01:14:34;;;;;;;3.88;2.80;;;21.70;1.00;;;;;;5036158;28;20025;-81
2022/08/10 01:17:11;;;;;;;3.63;2.63;;;21.70;1.00;;;;;;5035715;28;20262;-80
2022/08/10 01:20:08;;;;;;;2.60;2.40;;;21.70;1.00;;;;;;5035155;28;20036;-81
2022/08/10 01:22:49;;;;;;;3.25;2.30;;;21.80;1.00;;;;;;5035626;28;20026;-80
2022/08/10 01:25:29;;;;;;;2.80;2.60;;;21.90;1.00;;;;;;5035781;28;20065;-81
2022/08/10 01:28:04;;;;;;;2.80;2.40;;;22.10;1.00;;;;;;5035056;28;20133;-80
2022/08/10 01:30:31;;;;;;;2.80;2.60;;;21.80;1.00;;;;;;5035380;28;20501;-81
2022/08/10 01:33:21;;;;;;;3.33;2.50;;;21.70;1.00;;;;;;5034949;28;20018;-80
2022/08/10 01:36:02;;;;;;;4.00;2.55;;;21.40;1.00;;;;;;5035432;28;20036;-81
2022/08/10 01:38:35;;;;;;;2.78;2.58;;;21.30;1.00;;;;;;5035221;28;20116;-80
2022/08/10 01:41:07;;;;;;;3.00;2.80;;;21.30;1.00;;;;;;5035579;28;20018;-80
2022/08/10 01:43:37;;;;;;;2.88;2.47;;;21.40;1.00;;;;;;5035141;28;20030;-80
2022/08/10 01:46:04;;;;;;;4.05;2.53;;;21.20;1.00;;;;;;5035034;28;20079;-81
2022/08/10 01:48:34;;;;;;;4.28;2.50;;;21.20;1.00;;;;;;5034751;28;20467;-81
2022/08/10 01:51:13;;;;;;;3.15;2.45;;;21.20;1.00;;;;;;5035209;28;20091;-81
2022/08/10 01:53:55;;;;;;;3.25;2.60;;;21.20;1.00;;;;;;5034963;28;20022;-81
2022/08/10 01:56:25;;;;;;;2.70;2.50;;;21.30;1.00;;;;;;5034086;28;20433;-80
2022/08/10 01:58:57;;;;;;;2.70;2.50;;;21.30;1.00;;;;;;5034687;28;20037;-81
2022/08/10 02:01:28;;;;;;;5.72;2.60;;;21.40;1.00;;;;;;5035393;28;20083;-80
2022/08/10 02:03:58;;;;;;;2.75;2.55;;;21.50;1.00;;;;;;5035301;28;20021;-80
2022/08/10 02:06:28;;;;;;;2.83;2.50;;;21.40;1.00;;;;;;5035026;28;20486;-80
2022/08/10 02:08:56;;;;;;;4.95;2.63;;;21.40;1.00;;;;;;5034719;28;20021;-80
2022/08/10 02:11:22;;;;;;;3.70;2.55;;;21.30;1.00;;;;;;5034801;28;20022;-80
2022/08/10 02:13:49;;;;;;;3.45;2.42;;;21.30;1.00;;;;;;5034664;28;20079;-81
2022/08/10 02:16:18;;;;;;;2.60;2.40;;;21.20;1.00;;;;;;5034079;28;20032;-80
2022/08/10 02:18:45;;;;;;;5.53;2.70;;;21.10;1.00;;;;;;5034220;28;20045;-80
2022/08/10 02:21:11;;;;;;;5.40;2.95;;;21.20;1.00;;;;;;5034747;28;20022;-80
2022/08/10 02:23:38;;;;;;;3.72;2.60;;;21.30;1.00;;;;;;5034540;28;20401;-81
2022/08/10 02:26:08;;;;;;;3.15;2.55;;;21.10;1.00;;;;;;5034006;28;20030;-80
2022/08/10 02:28:36;;;;;;;4.65;2.22;;;21.10;1.00;;;;;;5034617;28;20454;-81
2022/08/10 02:31:15;;;;;;;3.53;2.42;;;21.20;1.00;;;;;;5033952;28;20039;-80
2022/08/10 02:33:44;;;;;;;2.70;2.50;;;21.20;1.00;;;;;;5034643;28;20564;-80
2022/08/10 02:36:11;;;;;;;5.00;2.67;;;21.10;1.00;;;;;;5034024;28;20429;-81
2022/08/10 02:38:51;;;;;;;3.35;2.78;;;21.10;1.00;;;;;;5034666;28;20036;-81
2022/08/10 02:41:33;;;;;;;4.53;2.60;;;21.10;1.00;;;;;;5034367;28;20087;-80
2022/08/10 02:44:08;;;;;;;2.72;2.53;;;21.00;1.00;;;;;;5034534;28;20029;-80
2022/08/10 02:46:40;;;;;;;2.70;2.50;;;20.80;1.00;;;;;;5033910;28;20029;-81
2022/08/10 02:49:13;;;;;;;2.90;2.60;;;20.70;1.00;;;;;;5034152;28;20022;-81
2022/08/10 02:51:49;;;;;;;2.80;2.60;;;20.70;1.00;;;;;;5033948;28;20152;-80
2022/08/10 02:54:22;;;;;;;4.15;2.30;;;20.70;1.00;;;;;;5033884;28;20017;-80
2022/08/10 02:57:03;;;;;;;4.72;2.85;;;20.70;1.00;;;;;;5033808;28;20113;-81
2022/08/10 02:59:34;;;;;;;3.05;2.50;;;20.80;1.00;;;;;;5033875;28;20072;-81
2022/08/10 03:02:05;;;;;;;2.88;2.67;;;20.90;1.00;;;;;;5033229;28;20036;-81
2022/08/10 03:04:38;;;;;;;4.70;2.67;;;20.80;1.00;;;;;;5033744;28;20095;-80
2022/08/10 03:07:08;;;;;;;3.72;2.75;;;20.70;1.00;;;;;;5033586;28;20079;-81
2022/08/10 03:09:37;;;;;;;2.65;2.45;;;20.70;1.00;;;;;;5033627;28;20017;-80
2022/08/10 03:12:05;;;;;;;2.60;2.40;;;20.80;1.00;;;;;;5033651;28;20025;-80
2022/08/10 03:14:32;;;;;;;2.90;2.53;;;20.70;1.00;;;;;;5033233;28;20049;-80
2022/08/10 03:17:00;;;;;;;2.72;2.53;;;20.60;1.00;;;;;;5033655;28;20069;-81
2022/08/10 03:19:28;;;;;;;2.78;2.40;;;20.60;1.00;;;;;;5033572;28;20049;-81
2022/08/10 03:21:55;;;;;;;3.67;2.40;;;20.70;1.00;;;;;;5032311;28;20079;-81
2022/08/10 03:24:24;;;;;;;4.18;2.60;;;20.80;1.00;;;;;;5033666;28;20045;-80
2022/08/10 03:26:52;;;;;;;2.78;2.58;;;20.60;1.00;;;;;;5032952;28;20438;-80
2022/08/10 03:29:19;;;;;;;6.60;2.63;;;20.50;1.00;;;;;;5033262;28;20482;-81
2022/08/10 03:31:46;;;;;;;2.55;2.35;;;20.50;1.00;;;;;;5033149;28;20049;-81
2022/08/10 03:34:14;;;;;;;3.00;2.80;;;20.50;1.00;;;;;;5033143;28;20033;-81
2022/08/10 03:36:40;;;;;;;3.53;2.50;;;20.50;1.00;;;;;;5033120;28;20028;-80
2022/08/10 03:39:06;;;;;;;3.17;2.72;;;20.60;1.00;;;;;;5033248;28;20045;-81
2022/08/10 03:41:37;;;;;;;3.13;2.70;;;20.50;1.00;;;;;;5033118;28;20044;-80
2022/08/10 03:44:05;;;;;;;3.53;2.50;;;20.30;1.00;;;;;;5032656;28;20547;-81
2022/08/10 03:46:34;;;;;;;3.40;2.50;;;20.20;1.00;;;;;;5033099;28;20034;-81
2022/08/10 03:49:02;;;;;;;2.83;2.35;;;20.20;1.00;;;;;;5032908;28;20034;-80
2022/08/10 03:51:29;;;;;;;2.60;2.38;;;20.30;1.00;;;;;;5033056;28;20103;-80
2022/08/10 03:53:56;;;;;;;3.05;2.40;;;20.30;1.00;;;;;;5032969;28;20030;-80
2022/08/10 03:56:22;;;;;;;3.20;2.88;;;20.20;1.00;;;;;;5032714;28;20415;-80
2022/08/10 03:58:48;;;;;;;2.92;2.72;;;20.20;1.00;;;;;;5032323;28;20096;-81
2022/08/10 04:01:14;;;;;;;2.90;2.67;;;20.20;1.00;;;;;;5032749;28;20025;-80
2022/08/10 04:03:40;;;;;;;3.78;2.78;;;20.10;1.00;;;;;;5032718;28;20113;-80
2022/08/10 04:06:06;;;;;;;2.90;2.70;;;20.10;1.00;;;;;;5032719;28;20105;-80
2022/08/10 04:08:32;;;;;;;2.83;2.63;;;20.20;1.00;;;;;;5032672;28;20033;-81
2022/08/10 04:10:58;;;;;;;4.07;2.80;;;20.20;1.00;;;;;;5033223;28;20017;-81
2022/08/10 04:13:23;;;;;;;3.10;2.90;;;20.10;1.00;;;;;;5032635;28;20078;-80
2022/08/10 04:15:49;;;;;;;3.08;2.80;;;20.00;1.00;;;;;;5032664;28;20060;-81
2022/08/10 04:18:15;;;;;;;3.33;3.00;;;20.00;1.00;;;;;;5032254;28;20068;-80
2022/08/10 04:20:55;;;;;;;3.08;2.78;;;20.00;1.00;;;;;;5034975;28;20486;-80
2022/08/10 04:23:26;;;;;;;3.90;3.00;;;20.10;1.00;;;;;;5036583;28;20056;-80
2022/08/10 04:25:52;;;;;;;3.42;2.72;;;20.00;1.00;;;;;;5036475;28;20025;-81
2022/08/10 04:28:18;;;;;;;4.78;2.80;;;20.00;1.00;;;;;;5036313;28;20033;-80
2022/08/10 04:30:46;;;;;;;3.15;2.80;;;20.10;1.00;;;;;;5036672;28;20028;-80
2022/08/10 04:33:15;;;;;;;3.80;2.72;;;20.10;1.00;;;;;;5036565;28;20029;-80
2022/08/10 04:35:44;;;;;;;4.47;2.75;;;19.90;1.00;;;;;;5036388;28;20487;-80
2022/08/10 04:38:10;;;;;;;3.53;2.95;;;19.90;1.00;;;;;;5036340;28;20037;-80
2022/08/10 04:40:37;;;;;;;5.38;2.85;;;20.10;1.00;;;;;;5036333;28;20026;-80
2022/08/10 04:43:05;;;;;;;3.90;2.80;;;20.00;1.00;;;;;;5035905;28;20067;-80
2022/08/10 04:45:31;;;;;;;4.88;2.90;;;20.10;1.00;;;;;;5036358;28;20029;-81
2022/08/10 04:47:57;;;;;;;5.07;3.08;;;20.00;1.00;;;;;;5036308;28;20028;-80
2022/08/10 04:50:23;;;;;;;3.20;2.88;;;19.90;1.00;;;;;;5036173;28;20029;-80
2022/08/10 04:52:48;;;;;;;2.92;2.70;;;19.90;1.00;;;;;;5036295;28;20026;-80
2022/08/10 04:55:14;;;;;;;3.20;2.42;;;20.10;1.00;;;;;;5036167;28;20441;-81
2022/08/10 04:57:39;;;;;;;2.95;2.75;;;20.20;1.00;;;;;;5035819;28;20401;-80
2022/08/10 05:00:06;;;;;;;4.72;2.67;;;20.10;1.00;;;;;;5035751;28;20125;-80
2022/08/10 05:02:32;;;;;;;3.47;2.58;;;20.10;1.00;;;;;;5036073;28;20029;-80
2022/08/10 05:04:57;;;;;;;3.47;2.75;;;20.10;1.00;;;;;;5035747;28;20034;-81
2022/08/10 05:07:23;;;;;;;3.72;2.97;;;20.10;1.00;;;;;;5035711;28;20025;-80
2022/08/10 05:09:51;;;;;;;3.88;2.97;;;20.00;1.00;;;;;;5035668;28;20032;-80
2022/08/10 05:12:17;;;;;;;3.75;2.67;;;20.00;1.00;;;;;;5035505;28;20021;-80
2022/08/10 05:14:42;;;;;;;4.80;3.15;;;20.20;1.00;;;;;;5035764;28;20382;-80
2022/08/10 05:17:08;;;;;;;4.57;3.00;;;20.10;1.00;;;;;;5035585;28;20029;-80
2022/08/10 05:19:34;;;;;;;3.78;3.00;;;20.20;1.00;;;;;;5035377;28;20037;-81
2022/08/10 05:21:59;;;;;;;4.20;3.10;;;20.10;1.00;;;;;;5035471;28;20382;-80
2022/08/10 05:24:25;;;;;;;4.35;3.13;;;20.20;1.00;;;;;;5035575;28;20509;-80
2022/08/10 05:26:51;;;;;;;3.60;2.90;;;20.30;1.00;;;;;;5034820;28;20049;-80
2022/08/10 05:29:16;;;;;;;3.95;3.00;;;20.40;1.00;;;;;;5035342;28;20034;-81
2022/08/10 05:31:42;;;;;;;4.30;3.22;;;20.30;1.00;;;;;;5035049;28;20100;-80
2022/08/10 05:34:08;;;;;;;3.92;2.63;;;20.30;1.00;;;;;;5035313;28;20034;-81
2022/08/10 05:36:34;;;;;;;3.35;2.95;;;20.30;1.00;;;;;;5035447;28;20049;-80
2022/08/10 05:39:00;;;;;;;3.10;2.80;;;20.40;1.00;;;;;;5035225;28;20041;-80
2022/08/10 05:41:27;;;;;;;3.47;3.00;;;20.50;1.00;;;;;;5034887;28;20029;-81
2022/08/10 05:43:55;;;;;;;3.50;2.80;;;20.40;1.00;;;;;;5035164;28;20100;-80
2022/08/10 05:46:20;;;;;;;5.57;2.95;;;20.40;1.00;;;;;;5034104;28;20405;-80
2022/08/10 05:48:47;;;;;;;4.43;2.78;;;20.50;1.00;;;;;;5035079;28;20022;-81
2022/08/10 05:51:13;;;;;;;12.45;3.00;;;20.50;1.00;;;;;;5034987;28;20030;-80
2022/08/10 05:53:38;;;;;;;3.80;2.58;;;20.60;1.00;;;;;;5034800;28;20040;-80
2022/08/10 05:56:06;;;;;;;7.43;3.40;;;20.70;1.00;;;;;;5034923;28;20022;-80
2022/08/10 05:58:36;;;;;;;4.32;3.00;;;20.80;1.00;;;;;;5035108;28;20382;-80
2022/08/10 06:01:09;;;;;;;3.00;2.70;;;20.80;1.00;;;;;;5034860;28;20029;-81
2022/08/10 06:03:49;;;;;;;8.07;2.78;;;20.90;1.00;;;;;;5034922;28;20018;-80
2022/08/10 06:06:18;;;;;;;4.72;3.03;;;21.00;1.00;;;;;;5034746;28;20470;-80
2022/08/10 06:08:45;;;;;;;3.72;3.22;;;21.00;1.00;;;;;;5034264;28;20083;-81
2022/08/10 06:11:12;;;;;;;6.03;3.00;;;20.90;1.00;;;;;;5034670;28;20363;-80
2022/08/10 06:16:31;;;;;;;7.85;3.72;;;21.00;1.00;;;;;;5034560;28;20037;-80
2022/08/10 06:18:58;;;;;;;5.45;3.20;;;21.20;1.00;;;;;;5034354;28;20363;-80
2022/08/10 06:21:24;;;;;;;4.32;2.80;;;21.30;1.00;;;;;;5034292;28;20088;-81
2022/08/10 06:23:51;;;;;;;5.13;3.08;;;21.40;1.00;;;;;;5034039;28;20433;-81
2022/08/10 06:26:17;;;;;;;3.63;2.85;;;21.40;1.00;;;;;;5034015;28;20050;-81
2022/08/10 06:29:05;;;;;;;3.35;2.90;;;21.30;1.00;;;;;;5034074;28;20026;-81
2022/08/10 06:31:39;;;;;;;4.22;2.80;;;21.60;1.00;;;;;;5034092;28;20472;-80
2022/08/10 06:34:08;;;;;;;3.38;3.08;;;21.70;1.00;;;;;;5034112;28;20029;-80
2022/08/10 06:36:36;;;;;;;4.43;3.25;;;21.80;1.00;;;;;;5034341;28;20029;-80
2022/08/10 06:39:02;;;;;;;5.10;2.97;;;21.80;1.00;;;;;;5033594;28;20037;-80
2022/08/10 06:41:33;;;;;;;5.53;3.00;;;21.80;1.00;;;;;;5034120;28;20026;-80
2022/08/10 06:44:04;;;;;;;3.92;2.95;;;21.90;1.00;;;;;;5033590;28;20060;-80
2022/08/10 06:46:33;;;;;;;3.63;3.22;;;22.00;1.00;;;;;;5033957;28;20039;-81
2022/08/10 06:49:01;;;;;;;4.50;3.20;;;22.20;1.00;;;;;;5034183;28;20026;-80
2022/08/10 06:51:32;;;;;;;3.83;3.05;;;22.20;1.00;;;;;;5033810;28;20053;-80
2022/08/10 06:54:02;;;;;;;4.88;3.17;;;22.40;1.00;;;;;;5033595;28;20048;-80
2022/08/10 06:56:32;;;;;;;9.20;3.10;;;22.50;1.00;;;;;;5033764;28;20032;-80
2022/08/10 06:59:06;;;;;;;4.30;2.70;;;22.70;1.00;;;;;;5033911;28;20482;-80
2022/08/10 07:01:37;;;;;;;6.07;3.10;;;22.80;1.00;;;;;;5034020;28;20108;-80
2022/08/10 07:04:24;;;;;;;4.78;3.50;;;22.90;1.00;;;;;;5033652;28;20036;-80
2022/08/10 07:06:50;;;;;;;6.40;3.10;;;22.90;1.00;;;;;;5033137;28;20025;-81
2022/08/10 07:09:18;;;;;;;4.63;3.08;;;22.90;1.00;;;;;;5032317;28;20112;-80
2022/08/10 07:11:46;;;;;;;4.05;3.42;;;23.00;1.00;;;;;;5033358;28;20078;-81
2022/08/10 07:14:13;;;;;;;8.30;3.30;;;23.20;1.00;;;;;;5033764;28;20470;-81
2022/08/10 07:16:41;;;;;;;9.45;3.50;;;23.20;1.00;;;;;;5033365;28;20017;-81
2022/08/10 07:19:09;;;;;;;5.43;3.05;;;23.20;1.00;;;;;;5033072;28;20045;-81
2022/08/10 07:21:38;;;;;;;4.05;2.95;;;23.30;1.00;;;;;;5032951;28;20060;-80
2022/08/10 07:24:08;;;;;;;4.90;3.30;;;23.40;1.00;;;;;;5033486;28;20041;-80
2022/08/10 07:26:35;;;;;;;10.20;3.50;;;23.50;1.00;;;;;;5033078;28;20095;-80
2022/08/10 07:29:04;;;;;;;6.63;3.25;;;23.50;1.00;;;;;;5033184;28;20041;-80
2022/08/10 07:31:30;;;;;;;8.15;3.70;;;23.50;1.00;;;;;;5033323;28;20025;-81
2022/08/10 07:33:58;;;;;;;7.78;3.05;;;23.60;1.00;;;;;;5033099;28;20033;-80
2022/08/10 07:36:25;;;;;;;4.38;3.10;;;23.80;1.00;;;;;;5032667;28;20024;-80
2022/08/10 07:38:53;;;;;;;6.60;3.28;;;23.80;1.00;;;;;;5033083;28;20033;-81
2022/08/10 07:41:22;;;;;;;4.70;3.17;;;23.90;1.00;;;;;;5032911;28;20027;-80
2022/08/10 07:43:50;;;;;;;6.95;2.72;;;24.00;1.00;;;;;;5032867;28;20091;-80
2022/08/10 07:46:18;;;;;;;5.78;2.80;;;24.00;1.00;;;;;;5032872;28;20021;-81
2022/08/10 07:48:48;;;;;;;5.85;2.95;;;24.10;1.00;;;;;;5032728;28;20025;-80
2022/08/10 07:51:17;;;;;;;4.38;3.10;;;24.10;1.00;;;;;;5032512;28;20108;-80
2022/08/10 07:53:49;;;;;;;5.55;3.10;;;24.20;1.00;;;;;;5032818;28;20049;-81
2022/08/10 07:56:17;;;;;;;3.75;2.92;;;24.30;1.00;;;;;;5032773;28;20394;-80
2022/08/10 07:58:51;;;;;;;4.72;2.83;;;24.20;1.00;;;;;;5032578;28;20065;-80
2022/08/10 08:01:19;;;;;;;7.03;2.97;;;24.10;1.00;;;;;;5032816;28;20049;-80
2022/08/10 08:03:46;;;;;;;6.53;3.13;;;24.20;1.00;;;;;;5032646;28;20449;-80
2022/08/10 08:06:12;;;;;;;6.30;3.45;;;24.40;1.00;;;;;;5032184;28;20449;-80
2022/08/10 08:08:40;;;;;;;5.85;3.28;;;24.40;1.00;;;;;;5032782;28;20493;-80
2022/08/10 08:11:07;;;;;;;8.38;3.30;;;24.40;1.00;;;;;;5032440;28;20029;-80
2022/08/10 08:13:35;;;;;;;5.47;2.90;;;24.50;1.00;;;;;;5032507;28;20036;-80
2022/08/10 08:16:03;;;;;;;4.32;3.00;;;24.70;1.00;;;;;;5032586;28;20025;-80
2022/08/10 08:18:31;;;;;;;5.78;2.92;;;24.70;1.00;;;;;;5032252;28;20184;-80
2022/08/10 08:20:57;;;;;;;4.78;3.05;;;24.90;1.00;;;;;;5032267;28;20033;-80
2022/08/10 08:23:26;;;;;;;5.15;3.00;;;25.00;1.00;;;;;;5032482;28;20397;-80
2022/08/10 08:25:53;;;;;;;5.20;3.20;;;25.00;1.00;;;;;;5032296;28;20025;-80
2022/08/10 08:28:20;;;;;;;6.57;3.42;;;25.10;1.00;;;;;;5032345;28;20129;-80
2022/08/10 08:30:47;;;;;;;5.88;3.30;;;25.20;1.00;;;;;;5032399;28;20091;-81
2022/08/10 08:33:14;;;;;;;4.32;2.90;;;25.20;1.00;;;;;;5032136;28;20049;-80
2022/08/10 08:35:42;;;;;;;7.97;2.90;;;25.20;1.00;;;;;;5032339;28;20029;-81
2022/08/10 08:38:09;;;;;;;5.53;3.03;;;25.30;1.00;;;;;;5032284;28;20013;-80
2022/08/10 08:40:36;;;;;;;6.40;3.63;;;25.50;1.00;;;;;;5032426;28;20095;-80
2022/08/10 08:43:20;;;;;;;8.45;3.10;;;25.70;1.00;;;;;;5032213;28;20075;-80
2022/08/10 08:45:58;;;;;;;9.48;3.20;;;25.70;1.00;;;;;;5032419;28;20036;-80
2022/08/10 08:48:42;;;;;;;3.42;3.05;;;25.90;1.00;;;;;;5032061;28;20482;-80
2022/08/10 08:51:24;;;;;;;4.00;2.85;;;25.90;1.00;;;;;;5032237;28;20041;-80
2022/08/10 08:54:15;;;;;;;7.22;2.90;;;25.90;1.00;;;;;;5032210;28;20445;-80
2022/08/10 08:56:54;;;;;;;4.68;3.03;;;26.10;1.00;;;;;;5032144;28;20026;-80
2022/08/10 08:59:42;;;;;;;6.35;2.95;;;26.00;1.00;;;;;;5032107;28;20040;-80
2022/08/10 09:02:32;;;;;;;6.22;2.92;;;26.20;1.00;;;;;;5031981;28;20112;-80
2022/08/10 09:05:21;;;;;;;6.03;2.92;;;26.10;1.00;;;;;;5032125;28;20037;-80
2022/08/10 09:07:56;;;;;;;5.15;2.88;;;26.30;1.00;;;;;;5035739;28;20100;-80
2022/08/10 09:10:43;;;;;;;3.40;3.03;;;26.30;1.00;;;;;;5035707;28;20083;-80
2022/08/10 09:13:30;;;;;;;6.82;3.17;;;26.30;1.00;;;;;;5035697;28;20022;-80
2022/08/10 09:16:14;;;;;;;4.80;3.20;;;26.40;1.00;;;;;;5035671;28;20021;-80
2022/08/10 09:19:08;;;;;;;4.93;2.80;;;26.80;1.00;;;;;;5035071;28;20496;-80
2022/08/10 09:22:18;;;;;;;5.47;3.20;;;26.80;1.00;;;;;;5035490;28;20029;-80
2022/08/10 09:24:55;;;;;;;7.65;2.70;;;26.90;1.00;;;;;;4955127;29;20035;-80
2022/08/10 09:27:39;;;;;;;6.28;2.97;;;27.00;1.00;;;;;;4954796;28;20074;-80
2022/08/10 09:30:09;;;;;;;6.10;3.60;;;27.30;1.00;;;;;;4955032;28;20051;-80
2022/08/10 09:32:38;;;;;;;7.40;2.83;;;27.20;1.00;;;;;;4954840;29;20031;-80
2022/08/10 09:35:41;;;;;;;5.55;3.10;;;27.30;1.00;;;;;;4955073;29;20050;-80
2022/08/10 09:38:47;;;;;;;5.97;3.03;;;27.40;1.00;;;;;;4955005;29;20079;-80
2022/08/10 09:41:23;;;;;;;5.18;2.83;;;27.30;1.00;;;;;;4897749;29;20049;-80
2022/08/10 09:43:57;;;;;;;3.55;2.97;;;27.50;1.00;;;;;;4897808;29;20097;-80
2022/08/10 09:46:46;;;;;;;6.50;3.22;;;27.50;1.00;;;;;;4897360;29;20041;-80
2022/08/10 09:49:34;;;;;;;6.65;2.70;;;27.60;1.00;;;;;;4897858;29;20024;-81
2022/08/10 09:52:16;;;;;;;6.63;3.38;;;27.90;1.00;;;;;;4841894;29;20038;-81
2022/08/10 09:55:02;;;;;;;7.05;3.20;;;28.20;1.00;;;;;;4842044;29;20046;-81
2022/08/10 09:57:40;;;;;;;5.43;2.90;;;28.30;1.00;;;;;;4841946;29;20038;-80
2022/08/10 10:00:11;;;;;;;9.07;3.00;;;28.30;1.00;;;;;;4868640;29;20160;-78
2022/08/10 10:03:01;;;;;;;4.63;2.95;;;28.40;1.00;;;;;;4897451;29;20043;-80
2022/08/10 10:05:55;;;;;;;4.82;2.95;;;28.50;1.00;;;;;;4897484;29;20128;-80
2022/08/10 10:08:27;;;;;;;3.90;3.00;;;28.60;1.00;;;;;;4897102;29;20242;-80
2022/08/10 10:11:16;;;;;;;5.38;2.97;;;28.60;1.00;;;;;;4897515;29;20096;-80
2022/08/10 10:14:12;;;;;;;3.42;2.70;;;28.70;1.00;;;;;;4897426;29;20028;-80
2022/08/10 10:17:02;;;;;;;9.65;3.13;;;28.80;1.00;;;;;;4924304;28;20036;-80
2022/08/10 10:19:36;;;;;;;3.35;2.97;;;28.60;1.00;;;;;;4953872;28;20468;-80
2022/08/10 10:22:09;;;;;;;4.50;2.90;;;28.90;1.00;;;;;;4954228;29;20110;-80
2022/08/10 10:25:02;;;;;;;4.45;2.90;;;29.00;1.00;;;;;;4938210;29;20468;-80
2022/08/10 10:27:46;;;;;;;5.13;2.80;;;29.10;1.00;;;;;;4953947;28;20067;-80
2022/08/10 10:30:13;;;;;;;4.07;2.78;;;29.30;1.00;;;;;;5032991;28;20497;-80
2022/08/10 10:33:01;;;;;;;4.03;3.08;;;29.40;1.00;;;;;;5034437;28;20030;-80
2022/08/10 10:35:42;;;;;;;5.00;2.92;;;29.40;99.90;;;;;;5034168;28;20100;-81
2022/08/10 10:38:11;;;;;;;4.47;2.65;;;29.40;1.00;;;;;;5034052;28;20026;-80
2022/08/10 10:40:43;;;;;;;4.35;2.67;;;29.70;99.90;;;;;;5034352;28;20064;-80
2022/08/10 10:43:35;;;;;;;5.68;2.90;;;29.90;99.90;;;;;;5034065;28;20107;-80
2022/08/10 10:46:20;;;;;;;5.05;3.03;;;30.20;99.90;;;;;;4953600;29;20559;-81
2022/08/10 10:49:19;;;;;;;3.20;3.00;;;30.20;99.90;;;;;;4953628;29;20061;-80
2022/08/10 10:52:08;;;;;;;3.58;2.80;;;30.40;99.90;;;;;;4953655;29;20460;-81
2022/08/10 10:54:50;;;;;;;4.05;2.83;;;30.30;99.90;;;;;;4953736;29;20436;-80
2022/08/10 10:57:26;;;;;;;5.20;2.88;;;30.90;99.90;;;;;;4953644;29;20035;-80
2022/08/10 10:59:51;;;;;;;5.03;2.58;;;32.10;99.90;;;;;;4953229;29;20126;-81
2022/08/10 11:02:41;;;;;;;6.63;2.88;;;34.70;99.90;;;;;;4953451;29;20111;-80
2022/08/10 11:05:18;;;;;;;5.55;2.63;;;37.30;99.90;;;;;;4953295;29;20078;-81
2022/08/10 11:07:56;;;;;;;4.07;2.70;;;39.80;99.90;;;;;;4953367;29;20027;-81
2022/08/10 11:10:26;;;;;;;4.55;2.70;;;40.70;99.90;;;;;;4953336;29;20571;-80
2022/08/10 11:13:00;;;;;;;2.60;2.40;;;42.00;99.90;;;;;;4952728;29;20518;-81
2022/08/10 11:15:42;;;;;;;4.32;2.67;;;42.70;99.90;;;;;;4953148;29;20030;-80
2022/08/10 11:18:34;;;;;;;2.60;2.40;;;43.90;99.90;;;;;;4952969;29;20536;-81
2022/08/10 11:21:17;;;;;;;3.35;2.60;;;44.10;99.90;;;;;;4953074;29;20043;-81
2022/08/10 11:23:55;;;;;;;2.70;2.50;;;45.10;99.90;;;;;;5022848;28;20037;-81
2022/08/10 11:26:25;;;;;;;2.83;2.50;;;43.90;99.90;;;;;;5033012;28;20128;-81
2022/08/10 11:29:02;;;;;;;3.28;2.40;;;43.20;99.90;;;;;;5032418;28;20041;-81
2022/08/10 11:32:01;;;;;;;4.40;2.60;;;44.70;99.90;;;;;;5033208;28;20112;-81
2022/08/10 11:34:41;;;;;;;3.72;2.28;;;44.60;99.90;;;;;;5033063;28;20021;-81
2022/08/10 11:37:28;;;;;;;3.13;2.40;;;45.60;99.90;;;;;;5033129;28;20392;-81
2022/08/10 11:40:19;;;;;;;2.53;2.33;;;45.50;99.90;;;;;;5033025;28;20482;-82
2022/08/10 11:43:00;;;;;;;3.13;2.30;;;47.00;99.90;;;;;;5032222;28;20033;-82
2022/08/10 11:45:33;;;;;;;3.17;2.05;;;46.40;99.90;;;;;;5032796;28;20029;-81
2022/08/10 11:48:31;;;;;;;2.40;2.20;;;47.40;99.90;;;;;;5032823;28;20497;-81
2022/08/10 11:51:02;;;;;;;2.42;2.03;;;47.70;99.90;;;;;;4952618;29;20031;-82
2022/08/10 11:53:41;;;;;;;2.50;2.30;;;46.90;99.90;;;;;;4952652;29;20047;-82
2022/08/10 11:56:11;;;;;;;2.67;2.13;;;46.90;99.90;;;;;;4952356;29;20526;-80
2022/08/10 12:01:32;;;;;;;3.47;2.17;;;48.80;99.90;;;;;;4952915;29;20050;-82
2022/08/10 12:04:06;;;;;;;2.55;2.20;;;47.30;99.90;;;;;;4952520;29;20070;-82
2022/08/10 12:06:34;;;;;;;4.28;2.25;;;48.00;99.90;;;;;;4952495;29;20082;-82
2022/08/10 12:09:03;;;;;;;2.40;2.10;;;47.90;99.90;;;;;;4952441;29;20043;-82
2022/08/10 12:11:29;;;;;;;5.97;2.40;;;47.90;99.90;;;;;;4952071;29;20027;-82
2022/08/10 12:14:17;;;;;;;3.70;2.30;;;48.50;99.90;;;;;;4952539;29;20054;-82
2022/08/10 12:16:47;;;;;;;2.38;1.98;;;48.10;99.90;;;;;;4952444;29;20031;-82
2022/08/10 12:19:40;;;;;;;2.40;1.75;;;48.80;99.90;;;;;;4952180;29;20059;-82
2022/08/10 12:22:10;;;;;;;3.90;2.00;;;48.50;99.90;;;;;;4952382;29;20043;-82
2022/08/10 12:24:48;;;;;;;3.03;1.90;;;48.90;99.90;;;;;;4952349;29;20039;-81
2022/08/10 12:27:22;;;;;;;3.15;1.88;;;49.90;99.90;;;;;;4974761;28;20037;-82
2022/08/10 12:29:48;;;;;;;3.47;1.90;;;49.00;99.90;;;;;;5032314;28;20037;-82
2022/08/10 12:32:22;;;;;;;1.92;1.83;;;49.20;99.90;;;;;;5032345;28;20029;-82
2022/08/10 12:35:02;;;;;;;1.98;1.50;;;48.50;99.90;;;;;;5032524;28;20045;-82
2022/08/10 12:37:46;;;;;;;1.70;1.60;;;49.20;99.90;;;;;;5032198;28;20030;-82
2022/08/10 12:40:17;;;;;;;2.33;1.60;;;49.00;99.90;;;;;;5032030;28;20033;-82
2022/08/10 12:43:15;;;;;;;1.52;1.42;;;49.70;99.90;;;;;;5036047;28;20092;-82
2022/08/10 12:45:59;;;;;;;4.35;1.90;;;49.30;99.90;;;;;;5036154;28;20851;-82
2022/08/10 12:48:49;;;;;;;1.77;1.40;;;50.00;99.90;;;;;;5036261;28;20107;-82
2022/08/10 12:51:29;;;;;;;1.55;1.45;;;49.70;99.90;;;;;;5036314;28;20033;-82
2022/08/10 12:54:17;;;;;;;1.98;1.35;;;48.50;99.90;;;;;;5036079;28;20057;-82
2022/08/10 12:57:03;;;;;;;3.15;1.35;;;48.60;99.90;;;;;;5036557;28;20029;-82
2022/08/10 12:59:31;;;;;;;1.75;1.55;;;48.80;99.90;;;;;;5035962;28;20033;-82
2022/08/10 13:01:58;;;;;;;2.42;1.73;;;49.10;99.90;;;;;;5036159;28;20478;-82
2022/08/10 13:04:30;;;;;;;1.77;1.67;;;48.20;99.90;;;;;;5035979;28;20029;-82
2022/08/10 13:06:59;;;;;;;4.65;2.10;;;48.70;99.90;;;;;;5035856;28;20486;-82
2022/08/10 13:09:25;;;;;;;3.22;2.03;;;48.30;99.90;;;;;;5035478;28;20022;-82
2022/08/10 13:12:07;;;;;;;2.85;2.10;;;48.10;99.90;;;;;;5035876;28;20030;-82
2022/08/10 13:14:57;;;;;;;2.67;2.00;;;47.90;99.90;;;;;;5035698;28;20026;-82
2022/08/10 13:17:27;;;;;;;2.83;1.80;;;47.80;99.90;;;;;;5035424;28;20093;-82
2022/08/10 13:19:54;;;;;;;2.58;2.17;;;45.20;99.90;;;;;;5035680;28;20033;-82
2022/08/10 13:22:24;;;;;;;2.30;2.10;;;46.40;99.90;;;;;;5035685;28;20029;-82
2022/08/10 13:24:52;;;;;;;2.42;2.20;;;46.20;99.90;;;;;;5033760;28;20501;-82
2022/08/10 13:27:25;;;;;;;2.55;2.17;;;46.30;99.90;;;;;;5035414;28;20494;-82
2022/08/10 13:29:55;;;;;;;3.05;2.60;;;46.10;99.90;;;;;;5035404;28;20022;-82